createdAt,value
2022-10-02T00:03:04.283Z,16.87
2022-10-02T00:09:11.324Z,16.99
2022-10-02T00:15:29.206Z,16.40
2022-10-02T00:28:35.320Z,16.99
2022-10-02T00:34:47.984Z,16.33
2022-10-02T00:41:06.047Z,16.79
2022-10-02T00:47:32.166Z,16.99
2022-10-02T00:53:40.604Z,16.03
2022-10-02T01:00:03.933Z,16.85
2022-10-02T01:06:07.574Z,17.11
2022-10-02T01:12:09.941Z,17.00
2022-10-02T01:18:15.030Z,17.09
2022-10-02T01:24:26.964Z,16.45
2022-10-02T01:30:31.473Z,16.29
2022-10-02T01:36:35.611Z,16.63
2022-10-02T01:42:40.343Z,16.73
2022-10-02T01:48:48.151Z,16.32
2022-10-02T01:55:26.157Z,16.13
2022-10-02T02:01:54.401Z,16.04
2022-10-02T02:08:05.683Z,16.57
2022-10-02T02:14:31.184Z,16.75
2022-10-02T02:33:59.938Z,16.16
2022-10-02T02:40:33.088Z,16.30
2022-10-02T02:47:23.710Z,15.49
2022-10-02T02:53:32.981Z,15.68
2022-10-02T02:59:44.736Z,15.30
2022-10-02T03:06:19.216Z,15.41
2022-10-02T03:13:16.221Z,15.12
2022-10-02T03:19:43.701Z,15.09
2022-10-02T03:26:08.472Z,15.41
2022-10-02T03:32:19.045Z,14.77
2022-10-02T03:38:24.358Z,14.90
2022-10-02T03:44:28.931Z,14.13
2022-10-02T03:50:40.953Z,13.90
2022-10-02T03:56:59.185Z,14.01
2022-10-02T04:03:09.533Z,14.12
2022-10-02T04:09:19.115Z,14.05
2022-10-02T04:15:48.524Z,13.55
2022-10-02T04:22:01.379Z,13.83
2022-10-02T04:28:12.020Z,13.66
2022-10-02T04:34:18.461Z,12.85
2022-10-02T04:40:39.955Z,13.59
2022-10-02T04:46:48.055Z,13.44
2022-10-02T04:53:27.408Z,13.61
2022-10-02T05:00:05.348Z,13.44
2022-10-02T05:06:28.941Z,13.37
2022-10-02T05:13:13.046Z,13.31
2022-10-02T05:19:33.292Z,13.16
2022-10-02T05:25:47.215Z,13.33
2022-10-02T05:32:27.205Z,13.03
2022-10-02T05:38:57.290Z,13.40
2022-10-02T05:45:17.018Z,13.38
2022-10-02T05:51:49.718Z,13.33
2022-10-02T05:58:22.894Z,13.08
2022-10-02T06:04:46.409Z,13.32
2022-10-02T06:10:58.057Z,13.05
2022-10-02T06:17:09.139Z,13.28
2022-10-02T06:23:37.350Z,13.29
2022-10-02T06:30:13.916Z,12.56
2022-10-02T06:36:27.990Z,13.40
2022-10-02T06:42:42.084Z,13.45
2022-10-02T06:48:54.749Z,13.61
2022-10-02T07:02:23.012Z,13.69
2022-10-02T07:08:28.673Z,13.95
2022-10-02T07:15:25.736Z,14.01
2022-10-02T07:21:42.640Z,14.48
2022-10-02T07:28:12.561Z,14.88
2022-10-02T07:41:12.783Z,14.95
2022-10-02T07:54:58.527Z,15.24
2022-10-02T08:01:23.607Z,14.93
2022-10-02T08:14:22.544Z,15.29
2022-10-02T08:20:30.466Z,15.24
2022-10-02T08:26:54.170Z,15.35
2022-10-02T08:33:19.475Z,15.20
2022-10-02T08:39:36.520Z,16.17
2022-10-02T08:46:10.905Z,16.62
2022-10-02T09:05:35.660Z,16.31
2022-10-02T09:12:24.444Z,16.75
2022-10-02T09:19:02.586Z,17.66
2022-10-02T10:27:01.183Z,17.72
2022-10-02T10:33:44.390Z,17.88
2022-10-02T11:06:46.172Z,16.95
2022-10-02T11:19:54.452Z,18.12
2022-10-02T12:45:19.230Z,17.65
2022-10-02T14:57:01.192Z,16.22
2022-10-02T16:49:16.895Z,14.48
